Time;durP1;ratioP1;P1;durP2;ratioP2;P2;SDS_P1;SDS_P2;PMS_P1;PMS_P2;Temp;Humidity;BMP_temperature;BMP_pressure;BME280_temperature;BME280_humidity;BME280_pressure;Samples;Min_cycle;Max_cycle;Signal;HPM_P1;HPM_P2
2022/11/14 00:00:10;;;;;;;73.27;37.70;;;6.90;99.90;;;;;;5056813;28;20566;-51
2022/11/14 00:02:36;;;;;;;73.90;40.50;;;6.80;99.90;;;;;;5067479;28;20051;-53
2022/11/14 00:05:02;;;;;;;71.43;39.00;;;6.90;99.90;;;;;;5069231;28;20113;-53
2022/11/14 00:07:32;;;;;;;70.18;38.42;;;6.80;99.90;;;;;;5070025;28;20563;-55
2022/11/14 00:09:57;;;;;;;74.88;40.38;;;6.80;99.90;;;;;;5051416;28;20041;-54
2022/11/14 00:12:23;;;;;;;75.50;41.20;;;6.80;99.90;;;;;;5051289;28;20055;-51
2022/11/14 00:14:48;;;;;;;76.93;41.80;;;6.80;99.90;;;;;;5047473;28;20048;-54
2022/11/14 00:17:14;;;;;;;76.33;42.53;;;6.90;99.90;;;;;;5050451;28;20502;-54
2022/11/14 00:19:39;;;;;;;80.57;43.73;;;6.80;99.90;;;;;;5050511;28;20232;-54
2022/11/14 00:22:05;;;;;;;78.97;44.30;;;6.80;99.90;;;;;;5050573;28;20048;-54
2022/11/14 00:24:30;;;;;;;83.57;46.93;;;6.80;99.90;;;;;;5049602;28;20067;-56
2022/11/14 00:26:56;;;;;;;83.83;44.93;;;6.80;99.90;;;;;;5049862;28;20106;-53
2022/11/14 00:29:22;;;;;;;81.13;44.73;;;6.80;99.90;;;;;;5050642;28;20040;-50
2022/11/14 00:31:47;;;;;;;75.70;44.43;;;6.80;99.90;;;;;;5066287;28;20761;-54
2022/11/14 00:34:13;;;;;;;76.17;42.47;;;6.80;99.90;;;;;;5067150;28;20039;-53
2022/11/14 00:36:38;;;;;;;78.50;44.03;;;6.80;99.90;;;;;;5070057;28;20115;-55
2022/11/14 00:39:04;;;;;;;77.20;42.07;;;6.80;99.90;;;;;;5061505;28;20094;-54
2022/11/14 00:41:30;;;;;;;79.80;44.55;;;6.80;99.90;;;;;;5050059;28;20110;-53
2022/11/14 00:43:56;;;;;;;75.57;41.20;;;6.80;99.90;;;;;;5063133;28;20040;-54
2022/11/14 00:46:21;;;;;;;76.33;43.67;;;6.80;99.90;;;;;;5069654;28;20047;-54
2022/11/14 00:48:47;;;;;;;75.50;41.60;;;6.80;99.90;;;;;;5061415;28;20044;-53
2022/11/14 00:51:12;;;;;;;75.33;42.20;;;6.80;99.90;;;;;;5069219;28;20048;-52
2022/11/14 00:53:38;;;;;;;72.80;42.42;;;6.80;99.90;;;;;;5061631;28;20477;-54
2022/11/14 00:56:05;;;;;;;77.75;44.13;;;6.70;99.90;;;;;;5049048;28;20083;-54
2022/11/14 00:58:31;;;;;;;75.43;44.00;;;6.80;99.90;;;;;;5052592;28;20033;-50
2022/11/14 01:00:56;;;;;;;73.90;41.73;;;6.70;99.90;;;;;;5068048;28;20036;-51
2022/11/14 01:03:22;;;;;;;71.70;41.30;;;6.70;99.90;;;;;;5053126;28;20033;-54
2022/11/14 01:05:50;;;;;;;74.53;41.72;;;6.70;99.90;;;;;;5050057;28;20129;-54
2022/11/14 01:08:17;;;;;;;74.35;42.58;;;6.60;99.90;;;;;;5050603;28;20566;-51
2022/11/14 01:10:45;;;;;;;75.35;44.97;;;6.60;99.90;;;;;;5049645;28;20049;-52
2022/11/14 01:13:11;;;;;;;74.30;44.17;;;6.60;99.90;;;;;;5049033;28;20037;-54
2022/11/14 01:15:40;;;;;;;70.63;42.13;;;6.60;99.90;;;;;;5064018;28;20036;-54
2022/11/14 01:18:06;;;;;;;71.35;43.30;;;6.50;99.90;;;;;;5070592;28;20177;-55
2022/11/14 01:20:32;;;;;;;73.72;43.17;;;6.50;99.90;;;;;;5067141;28;20564;-55
2022/11/14 01:22:57;;;;;;;74.13;41.27;;;6.50;99.90;;;;;;5075995;28;20203;-54
2022/11/14 01:25:23;;;;;;;76.63;42.17;;;6.50;99.90;;;;;;5059688;28;20394;-53
2022/11/14 01:27:48;;;;;;;65.83;38.60;;;6.40;99.90;;;;;;5076376;28;20130;-54
2022/11/14 01:30:14;;;;;;;76.77;44.50;;;6.40;99.90;;;;;;5072009;28;20129;-52
2022/11/14 01:32:39;;;;;;;81.17;46.20;;;6.40;99.90;;;;;;5068530;28;20041;-53
2022/11/14 01:35:05;;;;;;;77.63;46.53;;;6.40;99.90;;;;;;5067538;28;20037;-51
2022/11/14 01:37:31;;;;;;;76.22;44.35;;;6.30;99.90;;;;;;5068959;28;20076;-55
2022/11/14 01:39:56;;;;;;;78.50;46.30;;;6.30;99.90;;;;;;5050678;28;20048;-55
2022/11/14 01:42:22;;;;;;;78.53;45.30;;;6.30;99.90;;;;;;5049051;28;20303;-55
2022/11/14 01:44:52;;;;;;;84.13;48.83;;;6.30;99.90;;;;;;5059351;28;20037;-55
2022/11/14 01:47:25;;;;;;;84.88;47.92;;;6.20;99.90;;;;;;5073489;28;20036;-52
2022/11/14 01:49:56;;;;;;;82.30;46.95;;;6.20;99.90;;;;;;5054271;28;20094;-54
2022/11/14 01:52:27;;;;;;;81.50;47.10;;;6.20;99.90;;;;;;5054581;28;20099;-54
2022/11/14 01:54:59;;;;;;;84.78;46.95;;;6.20;99.90;;;;;;5051152;28;20044;-55
2022/11/14 01:57:34;;;;;;;84.88;47.83;;;6.20;99.90;;;;;;5053284;28;20041;-52
2022/11/14 02:00:04;;;;;;;83.85;46.80;;;6.10;99.90;;;;;;5069246;28;20409;-54
2022/11/14 02:02:30;;;;;;;93.50;50.78;;;6.10;99.90;;;;;;5053793;28;20473;-55
2022/11/14 02:05:14;;;;;;;91.07;49.20;;;6.10;99.90;;;;;;5051292;28;20068;-55
2022/11/14 02:07:40;;;;;;;93.93;53.55;;;6.00;99.90;;;;;;5053237;28;20068;-54
2022/11/14 02:10:16;;;;;;;82.63;47.13;;;6.00;99.90;;;;;;5053512;28;20114;-54
2022/11/14 02:12:43;;;;;;;91.50;48.93;;;6.00;99.90;;;;;;5053987;28;20072;-53
2022/11/14 02:15:09;;;;;;;;;;;5.90;99.90;;;;;;5051691;28;20043;-55
2022/11/14 02:17:35;;;;;;;91.05;48.47;;;5.90;99.90;;;;;;5065602;28;19917;-55
2022/11/14 02:20:10;;;;;;;91.00;47.85;;;5.90;99.90;;;;;;5064530;28;20037;-55
2022/11/14 02:22:36;;;;;;;91.70;50.78;;;5.90;99.90;;;;;;5052725;28;20502;-53
2022/11/14 02:25:02;;;;;;;101.07;52.65;;;5.90;99.90;;;;;;5067418;28;20056;-55
2022/11/14 02:27:28;;;;;;;91.50;50.00;;;5.90;99.90;;;;;;5072287;28;20036;-54
2022/11/14 02:30:01;;;;;;;100.35;52.83;;;5.80;99.90;;;;;;5055254;28;20041;-55
2022/11/14 02:32:26;;;;;;;103.18;53.15;;;5.90;99.90;;;;;;5057449;28;20107;-54
2022/11/14 02:34:52;;;;;;;94.57;50.10;;;5.80;99.90;;;;;;5069767;28;20116;-53
2022/11/14 02:37:17;;;;;;;100.37;52.00;;;5.90;99.90;;;;;;5065686;28;20549;-54
2022/11/14 02:39:43;;;;;;;97.00;52.07;;;5.90;99.90;;;;;;5070474;28;20531;-55
2022/11/14 02:42:08;;;;;;;99.30;54.23;;;5.90;99.90;;;;;;5075606;28;20071;-54
2022/11/14 02:44:34;;;;;;;97.53;50.27;;;5.90;99.90;;;;;;5069172;28;20040;-53
2022/11/14 02:46:59;;;;;;;98.70;52.90;;;5.90;99.90;;;;;;5071358;28;20032;-53
2022/11/14 02:49:25;;;;;;;94.90;51.57;;;5.90;99.90;;;;;;5071837;28;20045;-55
2022/11/14 02:51:50;;;;;;;103.63;52.37;;;5.90;99.90;;;;;;5072371;28;20545;-54
2022/11/14 02:54:16;;;;;;;100.67;52.63;;;5.90;99.90;;;;;;5053901;28;20128;-53
2022/11/14 02:56:41;;;;;;;105.90;54.30;;;5.90;99.90;;;;;;5052824;28;20116;-55
2022/11/14 02:59:07;;;;;;;93.43;51.27;;;5.90;99.90;;;;;;5062218;28;20123;-53
2022/11/14 03:01:32;;;;;;;102.00;55.73;;;5.90;99.90;;;;;;5070536;28;20048;-53
2022/11/14 03:03:58;;;;;;;94.97;48.33;;;5.90;99.90;;;;;;5065576;28;20098;-53
2022/11/14 03:06:23;;;;;;;96.97;52.63;;;5.90;99.90;;;;;;5068259;28;20037;-54
2022/11/14 03:08:49;;;;;;;99.07;52.57;;;5.90;99.90;;;;;;5071632;28;20086;-54
2022/11/14 03:11:14;;;;;;;103.80;54.27;;;5.90;99.90;;;;;;5070625;28;20044;-55
2022/11/14 03:13:40;;;;;;;106.30;56.23;;;5.90;99.90;;;;;;5063165;28;20044;-55
2022/11/14 03:16:08;;;;;;;99.13;54.00;;;5.90;99.90;;;;;;5051090;28;20036;-54
2022/11/14 03:18:34;;;;;;;102.28;56.92;;;5.90;99.90;;;;;;5058108;28;20048;-54
2022/11/14 03:21:08;;;;;;;95.97;53.15;;;5.90;99.90;;;;;;5070799;28;20042;-52
2022/11/14 03:23:33;;;;;;;100.32;55.60;;;5.90;99.90;;;;;;5070035;28;20055;-52
2022/11/14 03:26:01;;;;;;;106.63;55.60;;;5.90;99.90;;;;;;5070087;28;20039;-55
2022/11/14 03:28:27;;;;;;;106.60;53.65;;;5.90;99.90;;;;;;5069552;28;20528;-51
2022/11/14 03:30:52;;;;;;;100.07;51.40;;;6.00;99.90;;;;;;5061400;28;20051;-54
2022/11/14 03:33:18;;;;;;;94.83;55.13;;;5.90;99.90;;;;;;5050299;28;20037;-55
2022/11/14 03:35:43;;;;;;;93.47;52.27;;;6.00;99.90;;;;;;5050602;28;20040;-54
2022/11/14 03:38:09;;;;;;;99.87;53.57;;;6.00;99.90;;;;;;5058455;28;20111;-54
2022/11/14 03:40:38;;;;;;;101.30;54.90;;;6.00;99.90;;;;;;5066042;28;20051;-54
2022/11/14 03:43:04;;;;;;;91.63;51.45;;;6.00;99.90;;;;;;5070272;28;20074;-50
2022/11/14 03:45:29;;;;;;;97.80;54.37;;;6.00;99.90;;;;;;5070516;28;20477;-52
2022/11/14 03:47:55;;;;;;;100.53;54.23;;;6.00;99.90;;;;;;5072594;28;20102;-54
2022/11/14 03:50:20;;;;;;;97.30;53.83;;;6.00;99.90;;;;;;5079839;28;20505;-55
2022/11/14 03:52:48;;;;;;;97.00;51.27;;;6.00;99.90;;;;;;5068185;28;20036;-51
2022/11/14 03:55:14;;;;;;;95.40;51.53;;;6.00;99.90;;;;;;5060158;28;20041;-52
2022/11/14 03:57:39;;;;;;;95.93;51.73;;;6.00;99.90;;;;;;5052617;28;20120;-53
2022/11/14 04:00:05;;;;;;;98.73;56.30;;;6.10;99.90;;;;;;5060991;28;20536;-54
2022/11/14 04:02:31;;;;;;;97.03;52.08;;;6.00;99.90;;;;;;5070056;28;20082;-55
2022/11/14 04:04:57;;;;;;;91.80;52.47;;;6.00;99.90;;;;;;5069052;28;20040;-52
2022/11/14 04:07:22;;;;;;;99.80;53.73;;;6.00;99.90;;;;;;5069165;28;20513;-54
2022/11/14 04:09:48;;;;;;;94.83;55.07;;;6.00;99.90;;;;;;5057505;28;20052;-51
2022/11/14 04:12:13;;;;;;;99.80;54.17;;;6.00;99.90;;;;;;5050742;28;20033;-52
2022/11/14 04:14:39;;;;;;;98.20;54.80;;;6.00;99.90;;;;;;5049086;28;20055;-51
2022/11/14 04:17:04;;;;;;;98.33;52.77;;;6.00;99.90;;;;;;5070561;28;20039;-54
2022/11/14 04:19:30;;;;;;;99.93;53.30;;;6.00;99.90;;;;;;5067767;28;20040;-54
2022/11/14 04:21:55;;;;;;;101.80;57.10;;;6.00;99.90;;;;;;5070048;28;20044;-53
2022/11/14 04:24:21;;;;;;;102.63;55.73;;;6.00;99.90;;;;;;5068480;28;20289;-51
2022/11/14 04:26:46;;;;;;;104.07;54.83;;;6.10;99.90;;;;;;5070128;28;20063;-52
2022/11/14 04:29:12;;;;;;;102.93;52.40;;;6.10;99.90;;;;;;5069562;28;20224;-53
2022/11/14 04:31:37;;;;;;;94.33;52.47;;;6.10;99.90;;;;;;5054359;28;20093;-53
2022/11/14 04:34:03;;;;;;;100.73;53.87;;;6.00;99.90;;;;;;5051856;28;20173;-55
2022/11/14 04:36:28;;;;;;;99.97;53.53;;;6.10;99.90;;;;;;5069283;28;20123;-54
2022/11/14 04:38:54;;;;;;;106.20;56.23;;;6.00;99.90;;;;;;5069443;28;20103;-53
2022/11/14 04:41:19;;;;;;;92.93;54.90;;;6.00;99.90;;;;;;5056365;28;20048;-51
2022/11/14 04:43:45;;;;;;;99.43;52.80;;;6.00;99.90;;;;;;5060828;28;20062;-54
2022/11/14 04:46:10;;;;;;;106.83;55.00;;;6.00;99.90;;;;;;5068826;28;20040;-53
2022/11/14 04:48:36;;;;;;;95.47;52.47;;;6.00;99.90;;;;;;5070065;28;20089;-55
2022/11/14 04:51:01;;;;;;;102.70;53.63;;;6.00;99.90;;;;;;5057348;28;20049;-50
2022/11/14 04:53:27;;;;;;;100.40;53.13;;;6.00;99.90;;;;;;5048801;28;20040;-51
2022/11/14 04:55:52;;;;;;;110.30;54.87;;;6.00;99.90;;;;;;5049402;28;20040;-53
2022/11/14 04:58:18;;;;;;;101.77;55.53;;;6.00;99.90;;;;;;5049678;28;20041;-54
2022/11/14 05:00:43;;;;;;;104.70;56.17;;;6.10;99.90;;;;;;5059817;28;20221;-51
2022/11/14 05:03:09;;;;;;;102.57;55.53;;;6.10;99.90;;;;;;5067027;28;20039;-55
2022/11/14 05:05:34;;;;;;;104.90;58.73;;;6.10;99.90;;;;;;5069096;28;20032;-52
2022/11/14 05:08:00;;;;;;;109.43;56.67;;;6.00;99.90;;;;;;5069622;28;20185;-52
2022/11/14 05:10:26;;;;;;;101.93;56.63;;;6.00;99.90;;;;;;5069725;28;20044;-51
2022/11/14 05:12:54;;;;;;;102.30;56.00;;;6.00;99.90;;;;;;5067039;28;20390;-54
2022/11/14 05:15:20;;;;;;;105.65;54.40;;;6.00;99.90;;;;;;5061628;28;20490;-51
2022/11/14 05:17:46;;;;;;;111.50;57.00;;;6.00;99.90;;;;;;5049631;28;20044;-52
2022/11/14 05:20:12;;;;;;;106.10;55.83;;;6.00;99.90;;;;;;5050344;28;20037;-54
2022/11/14 05:22:37;;;;;;;97.75;55.65;;;6.00;99.90;;;;;;5054209;28;20176;-54
2022/11/14 05:25:04;;;;;;;101.57;56.80;;;6.00;99.90;;;;;;5052724;28;20174;-52
2022/11/14 05:27:30;;;;;;;112.10;58.83;;;6.00;99.90;;;;;;5053718;28;20040;-52
2022/11/14 05:29:55;;;;;;;99.77;56.17;;;6.00;99.90;;;;;;5054461;28;20056;-54
2022/11/14 05:32:21;;;;;;;100.03;55.90;;;6.00;99.90;;;;;;5053951;28;20047;-54
2022/11/14 05:34:46;;;;;;;103.87;54.27;;;6.00;99.90;;;;;;5053367;28;20283;-54
2022/11/14 05:37:12;;;;;;;101.80;52.47;;;6.00;99.90;;;;;;5053250;28;20041;-54
2022/11/14 05:39:38;;;;;;;96.30;51.93;;;6.00;99.90;;;;;;5054673;28;20045;-55
2022/11/14 05:42:03;;;;;;;90.85;50.40;;;6.00;99.90;;;;;;5069955;28;20241;-52
2022/11/14 05:44:29;;;;;;;109.27;58.17;;;6.00;99.90;;;;;;5070300;28;20486;-52
2022/11/14 05:46:54;;;;;;;106.17;56.97;;;6.00;99.90;;;;;;5062875;28;20314;-52
2022/11/14 05:49:20;;;;;;;97.33;56.33;;;6.00;99.90;;;;;;5052937;28;20418;-56
2022/11/14 05:51:46;;;;;;;103.40;53.77;;;5.90;99.90;;;;;;5052903;28;20086;-51
2022/11/14 05:54:11;;;;;;;100.65;52.65;;;5.90;99.90;;;;;;5064003;28;20058;-51
2022/11/14 05:56:37;;;;;;;97.93;48.87;;;5.90;99.90;;;;;;5071166;28;20055;-53
2022/11/14 05:59:02;;;;;;;103.53;51.97;;;5.90;99.90;;;;;;5080867;28;20098;-52
2022/11/14 06:01:28;;;;;;;106.37;56.47;;;5.90;99.90;;;;;;5059888;28;20115;-52
2022/11/14 06:03:53;;;;;;;104.77;52.83;;;5.90;99.90;;;;;;5077269;28;20039;-53
2022/11/14 06:06:20;;;;;;;104.13;52.10;;;5.80;99.90;;;;;;5070316;28;20040;-53
2022/11/14 06:08:46;;;;;;;95.82;49.05;;;5.80;99.90;;;;;;5053567;28;20098;-51
2022/11/14 06:11:17;;;;;;;91.18;51.17;;;5.80;99.90;;;;;;5056403;28;20048;-54
2022/11/14 06:13:44;;;;;;;99.10;51.15;;;5.80;99.90;;;;;;5071751;28;20076;-53
2022/11/14 06:16:12;;;;;;;98.80;50.65;;;5.70;99.90;;;;;;5059052;28;20108;-51
2022/11/14 06:18:38;;;;;;;96.97;50.65;;;5.70;99.90;;;;;;5052544;28;20052;-53
2022/11/14 06:21:10;;;;;;;98.65;50.47;;;5.60;99.90;;;;;;5052365;28;20056;-52
2022/11/14 06:23:36;;;;;;;95.95;51.70;;;5.60;99.90;;;;;;5058982;28;20321;-53
2022/11/14 06:26:05;;;;;;;103.93;55.22;;;5.50;99.90;;;;;;5054775;28;20044;-50
2022/11/14 06:28:31;;;;;;;92.55;47.15;;;5.50;99.90;;;;;;5078244;28;20033;-54
2022/11/14 06:30:57;;;;;;;107.43;52.58;;;5.40;99.90;;;;;;5070759;28;20040;-52
2022/11/14 06:33:23;;;;;;;106.30;51.67;;;5.30;99.90;;;;;;5051125;28;20268;-51
2022/11/14 06:35:48;;;;;;;120.13;63.40;;;5.30;99.90;;;;;;5059649;28;20115;-51
2022/11/14 06:38:14;;;;;;;108.83;54.20;;;5.30;99.90;;;;;;5053759;28;20045;-51
2022/11/14 06:40:40;;;;;;;108.10;54.37;;;5.40;99.90;;;;;;5072617;28;20040;-54
2022/11/14 06:43:05;;;;;;;102.90;55.13;;;5.40;99.90;;;;;;5073001;28;20044;-54
2022/11/14 06:45:31;;;;;;;104.63;52.43;;;5.40;99.90;;;;;;5079697;28;20068;-53
2022/11/14 06:47:59;;;;;;;97.83;50.40;;;5.40;99.90;;;;;;5076848;28;20033;-51
2022/11/14 06:50:25;;;;;;;104.10;50.17;;;5.40;99.90;;;;;;5061605;28;20080;-51
2022/11/14 06:52:50;;;;;;;106.53;51.37;;;5.40;99.90;;;;;;5066879;28;20065;-53
2022/11/14 06:55:16;;;;;;;89.47;47.13;;;5.30;99.90;;;;;;5058920;28;20401;-54
2022/11/14 06:57:42;;;;;;;96.90;50.27;;;5.30;99.90;;;;;;5052550;28;20401;-53
2022/11/14 07:00:08;;;;;;;92.10;50.13;;;5.30;99.90;;;;;;5052681;28;20279;-50
2022/11/14 07:02:33;;;;;;;83.78;47.47;;;5.30;99.90;;;;;;5071178;28;20040;-55
2022/11/14 07:04:59;;;;;;;94.93;47.60;;;5.30;99.90;;;;;;5070558;28;20043;-52
2022/11/14 07:07:24;;;;;;;92.93;47.60;;;5.30;99.90;;;;;;5072155;28;20112;-55
2022/11/14 07:09:50;;;;;;;92.70;47.83;;;5.30;99.90;;;;;;5060048;28;20098;-51
2022/11/14 07:12:15;;;;;;;95.23;47.20;;;5.30;99.90;;;;;;5067071;28;20071;-51
2022/11/14 07:14:41;;;;;;;86.93;45.77;;;5.30;99.90;;;;;;5070184;28;20493;-54
2022/11/14 07:17:06;;;;;;;88.17;46.80;;;5.30;99.90;;;;;;5071319;28;20444;-51
2022/11/14 07:19:32;;;;;;;87.87;47.00;;;5.40;99.90;;;;;;5070216;28;20091;-50
2022/11/14 07:21:58;;;;;;;85.55;46.50;;;5.30;99.90;;;;;;5071321;28;20044;-53
2022/11/14 07:24:23;;;;;;;88.30;44.40;;;5.30;99.90;;;;;;5069788;28;20052;-55
2022/11/14 07:26:49;;;;;;;84.17;46.07;;;5.30;99.90;;;;;;5066367;28;20132;-51
2022/11/14 07:29:14;;;;;;;94.50;47.87;;;5.40;99.90;;;;;;5061234;28;20500;-51
2022/11/14 07:31:40;;;;;;;91.00;46.10;;;5.30;99.90;;;;;;5054139;28;20123;-54
2022/11/14 07:34:06;;;;;;;95.93;50.63;;;5.40;99.90;;;;;;5063984;28;20041;-53
2022/11/14 07:36:32;;;;;;;77.57;42.80;;;5.40;99.90;;;;;;5069232;28;20033;-53
2022/11/14 07:38:57;;;;;;;98.87;50.20;;;5.40;99.90;;;;;;5067627;28;20527;-53
2022/11/14 07:41:23;;;;;;;100.60;53.00;;;5.40;99.90;;;;;;5071299;28;20540;-50
2022/11/14 07:43:48;;;;;;;100.37;52.30;;;5.50;99.90;;;;;;5063403;28;20048;-50
2022/11/14 07:46:16;;;;;;;104.63;53.70;;;5.40;99.90;;;;;;5059040;28;20041;-54
2022/11/14 07:48:43;;;;;;;98.90;52.75;;;5.40;99.90;;;;;;5074244;28;20036;-51
2022/11/14 07:51:12;;;;;;;;;;;5.40;99.90;;;;;;5080518;28;20037;-53
2022/11/14 07:53:38;;;;;;;104.38;52.72;;;5.50;99.90;;;;;;5058499;28;20300;-53
2022/11/14 07:56:08;;;;;;;95.80;53.30;;;5.50;99.90;;;;;;5066341;28;20036;-55
2022/11/14 07:58:37;;;;;;;101.53;50.97;;;5.50;99.90;;;;;;5059480;28;20550;-54
2022/11/14 08:01:05;;;;;;;97.93;50.22;;;5.50;99.90;;;;;;5078214;28;20039;-54
2022/11/14 08:03:31;;;;;;;89.78;48.88;;;5.60;99.90;;;;;;5059899;28;20044;-51
2022/11/14 08:06:05;;;;;;;76.45;41.03;;;5.80;99.90;;;;;;5071189;28;20486;-52
2022/11/14 08:08:30;;;;;;;85.30;44.50;;;6.10;99.90;;;;;;5079073;28;20047;-52
2022/11/14 08:10:57;;;;;;;79.90;43.97;;;6.50;99.90;;;;;;5089754;28;20032;-55
2022/11/14 08:13:24;;;;;;;91.60;43.83;;;6.90;99.90;;;;;;5068782;28;20063;-54
2022/11/14 08:15:50;;;;;;;85.30;43.75;;;7.30;99.90;;;;;;5065195;28;20131;-54
2022/11/14 08:18:15;;;;;;;73.88;40.40;;;7.80;99.90;;;;;;5051173;28;20056;-54
2022/11/14 08:20:41;;;;;;;62.33;37.60;;;8.20;99.90;;;;;;5070295;28;20566;-52
2022/11/14 08:23:06;;;;;;;61.78;36.03;;;8.70;99.90;;;;;;5065255;28;20037;-54
2022/11/14 08:25:32;;;;;;;60.67;34.87;;;9.00;99.90;;;;;;5049913;28;20578;-55
2022/11/14 08:27:58;;;;;;;58.20;34.75;;;9.40;99.90;;;;;;5052629;28;20041;-55
2022/11/14 08:30:24;;;;;;;56.97;34.67;;;9.80;99.90;;;;;;5056740;28;20044;-57
2022/11/14 08:32:50;;;;;;;53.33;33.15;;;10.20;99.90;;;;;;5069141;28;20045;-55
2022/11/14 08:35:16;;;;;;;54.50;33.17;;;10.50;99.90;;;;;;5068136;28;20405;-57
2022/11/14 08:37:42;;;;;;;53.42;32.55;;;10.80;99.90;;;;;;5073041;28;20040;-56
2022/11/14 08:40:08;;;;;;;53.23;33.60;;;11.10;99.90;;;;;;5079526;28;20553;-56
2022/11/14 08:42:33;;;;;;;54.95;32.95;;;11.30;99.90;;;;;;5063744;28;20389;-57
2022/11/14 08:44:59;;;;;;;57.17;34.97;;;11.50;99.90;;;;;;5044563;28;20128;-57
2022/11/14 08:47:25;;;;;;;55.33;35.13;;;11.40;99.90;;;;;;5058486;28;20052;-56
2022/11/14 08:49:50;;;;;;;59.27;35.43;;;11.60;99.90;;;;;;5046806;28;20048;-57
2022/11/14 08:52:16;;;;;;;58.97;36.10;;;11.60;99.90;;;;;;5054747;28;20128;-56
2022/11/14 08:54:41;;;;;;;58.87;36.50;;;11.80;99.90;;;;;;5049015;28;20036;-55
2022/11/14 08:57:07;;;;;;;55.83;34.33;;;11.70;99.90;;;;;;5057907;28;20033;-55
2022/11/14 08:59:33;;;;;;;56.17;35.15;;;11.60;99.90;;;;;;5054341;28;20418;-55
2022/11/14 09:01:58;;;;;;;60.13;37.75;;;11.60;99.90;;;;;;5054358;28;20064;-56
2022/11/14 09:04:24;;;;;;;59.67;37.40;;;11.50;99.90;;;;;;5046267;28;20040;-56
2022/11/14 09:06:50;;;;;;;57.40;37.67;;;11.40;99.90;;;;;;5059183;28;20510;-55
2022/11/14 09:09:16;;;;;;;65.65;40.30;;;11.30;99.90;;;;;;5048996;28;20885;-55
2022/11/14 09:11:41;;;;;;;60.10;37.03;;;11.20;99.90;;;;;;5056208;28;20033;-52
2022/11/14 09:14:08;;;;;;;64.27;39.67;;;10.90;99.90;;;;;;5051745;28;20041;-54
2022/11/14 09:16:34;;;;;;;59.78;36.72;;;10.50;99.90;;;;;;5054572;28;20032;-53
2022/11/14 09:18:59;;;;;;;65.22;40.05;;;10.30;99.90;;;;;;5055198;28;20113;-56
2022/11/14 09:21:25;;;;;;;66.70;41.05;;;10.20;99.90;;;;;;5057563;28;20135;-55
2022/11/14 09:23:51;;;;;;;66.45;41.28;;;9.80;99.90;;;;;;5050897;28;20102;-56
2022/11/14 09:26:17;;;;;;;65.57;39.53;;;9.60;99.90;;;;;;5049768;28;20044;-54
2022/11/14 09:28:43;;;;;;;67.50;40.15;;;9.50;99.90;;;;;;5058646;28;20316;-53
2022/11/14 09:31:11;;;;;;;67.80;41.33;;;9.20;99.90;;;;;;5057339;28;20055;-56
2022/11/14 09:33:37;;;;;;;69.00;41.67;;;8.90;99.90;;;;;;5046435;28;20029;-55
2022/11/14 09:36:09;;;;;;;69.50;41.72;;;8.60;99.90;;;;;;5049430;28;20509;-55
2022/11/14 09:38:34;;;;;;;70.20;42.70;;;8.20;99.90;;;;;;5064170;28;20300;-55
2022/11/14 09:41:22;;;;;;;70.30;40.93;;;8.00;99.90;;;;;;5058532;28;20119;-56
2022/11/14 09:44:06;;;;;;;71.07;40.47;;;7.80;99.90;;;;;;5057904;28;20425;-55
2022/11/14 09:46:39;;;;;;;72.75;42.08;;;7.70;99.90;;;;;;5056705;28;20052;-54
2022/11/14 09:49:14;;;;;;;70.80;43.40;;;7.70;99.90;;;;;;5066227;28;20036;-55
2022/11/14 09:51:48;;;;;;;76.85;43.83;;;7.70;99.90;;;;;;5057351;28;20044;-54
2022/11/14 09:54:23;;;;;;;78.15;44.83;;;7.80;99.90;;;;;;5060410;28;20601;-54
2022/11/14 09:56:50;;;;;;;71.00;44.75;;;7.80;99.90;;;;;;5064627;28;20537;-55
2022/11/14 09:59:15;;;;;;;;;;;7.90;99.90;;;;;;5063178;28;20481;-55
2022/11/14 10:01:55;;;;;;;66.15;41.47;;;8.10;99.90;;;;;;5061127;28;19916;-55
2022/11/14 10:04:51;;;;;;;67.20;41.67;;;8.30;99.90;;;;;;5057067;28;20056;-56
2022/11/14 10:07:32;;;;;;;71.43;43.58;;;8.40;99.90;;;;;;5057170;28;20118;-54
2022/11/14 10:10:13;;;;;;;61.83;38.80;;;8.50;99.90;;;;;;5060377;28;20044;-57
2022/11/14 10:13:01;;;;;;;66.07;42.38;;;8.60;99.90;;;;;;5061831;28;20044;-53
2022/11/14 10:15:35;;;;;;;59.70;37.58;;;8.60;99.90;;;;;;5066811;28;20039;-56
2022/11/14 10:18:22;;;;;;;63.83;39.30;;;8.60;99.90;;;;;;5063510;28;20040;-56
2022/11/14 10:20:53;;;;;;;63.58;39.22;;;8.50;99.90;;;;;;5061381;28;20043;-55
2022/11/14 10:23:37;;;;;;;64.00;41.10;;;8.50;99.90;;;;;;5057557;28;20033;-56
2022/11/14 10:26:19;;;;;;;65.22;41.90;;;8.60;99.90;;;;;;5060932;28;20095;-56
2022/11/14 10:29:09;;;;;;;60.42;37.03;;;8.70;99.90;;;;;;5063221;28;20033;-55
2022/11/14 10:32:00;;;;;;;58.28;38.75;;;8.70;99.90;;;;;;5066022;28;20045;-54
2022/11/14 10:34:42;;;;;;;62.13;38.28;;;8.80;99.90;;;;;;5035494;28;20086;-57
2022/11/14 10:37:32;;;;;;;56.63;36.05;;;9.00;99.90;;;;;;5060185;28;20138;-55
2022/11/14 10:40:23;;;;;;;55.60;35.90;;;9.00;99.90;;;;;;5061070;28;20031;-54
2022/11/14 10:42:55;;;;;;;57.38;36.20;;;9.10;99.90;;;;;;5065849;28;20037;-55
2022/11/14 10:45:35;;;;;;;49.97;32.47;;;9.30;99.90;;;;;;5061901;28;20048;-57
2022/11/14 10:48:14;;;;;;;52.35;34.53;;;9.50;99.90;;;;;;5064162;28;20528;-56
2022/11/14 10:50:46;;;;;;;50.58;32.17;;;9.60;99.90;;;;;;5066124;28;20040;-53
2022/11/14 10:53:25;;;;;;;48.88;33.03;;;9.80;99.90;;;;;;5064555;28;20136;-54
2022/11/14 10:55:54;;;;;;;47.50;29.60;;;10.00;99.90;;;;;;5070732;28;20043;-55
2022/11/14 10:58:20;;;;;;;50.90;32.38;;;10.10;99.90;;;;;;5063409;28;20381;-57
2022/11/14 11:00:46;;;;;;;46.08;30.77;;;10.10;99.90;;;;;;5060459;28;20047;-56
2022/11/14 11:03:12;;;;;;;48.20;30.10;;;10.20;99.90;;;;;;5063268;28;20036;-55
2022/11/14 11:05:55;;;;;;;44.00;30.88;;;10.30;99.90;;;;;;5061102;28;20286;-56
2022/11/14 11:11:30;;;;;;;47.28;29.67;;;10.50;99.90;;;;;;5059469;28;20036;-55
2022/11/14 11:14:00;;;;;;;41.15;26.13;;;10.70;99.90;;;;;;5059066;28;20041;-57
2022/11/14 11:16:27;;;;;;;43.25;28.55;;;10.70;99.90;;;;;;5061009;28;20040;-56
2022/11/14 11:19:01;;;;;;;43.30;28.58;;;10.70;99.90;;;;;;5068480;28;20043;-55
2022/11/14 11:21:44;;;;;;;40.13;27.70;;;10.70;99.90;;;;;;5071756;28;20051;-55
2022/11/14 11:24:10;;;;;;;37.55;26.55;;;10.70;99.90;;;;;;5075047;28;20063;-56
2022/11/14 11:26:35;;;;;;;38.07;25.47;;;10.60;99.90;;;;;;5075571;28;20121;-55
2022/11/14 11:29:14;;;;;;;39.73;27.53;;;10.60;99.90;;;;;;5075630;28;20089;-55
2022/11/14 11:31:53;;;;;;;37.58;25.90;;;10.60;99.90;;;;;;5072505;28;20439;-55
2022/11/14 11:34:27;;;;;;;42.20;28.23;;;10.70;99.90;;;;;;5068075;28;20040;-56
2022/11/14 11:37:01;;;;;;;33.30;22.50;;;10.70;99.90;;;;;;5070938;28;20052;-56
2022/11/14 11:39:30;;;;;;;31.20;23.08;;;10.90;99.90;;;;;;5075976;28;20044;-55
2022/11/14 11:42:00;;;;;;;33.55;25.15;;;10.90;99.90;;;;;;5070973;28;20047;-55
2022/11/14 11:44:36;;;;;;;34.13;24.25;;;10.90;99.90;;;;;;5074191;28;20232;-55
2022/11/14 11:47:07;;;;;;;33.95;24.92;;;10.90;99.90;;;;;;5073545;28;20100;-55
2022/11/14 11:49:42;;;;;;;36.45;25.45;;;10.80;99.90;;;;;;5075647;28;20048;-55
2022/11/14 11:52:18;;;;;;;34.33;24.80;;;10.80;99.90;;;;;;5073338;28;20228;-56
2022/11/14 11:54:58;;;;;;;37.70;22.83;;;10.90;99.90;;;;;;5070143;28;20040;-56
2022/11/14 11:57:32;;;;;;;32.95;22.13;;;11.00;99.90;;;;;;5067523;28;20051;-55
2022/11/14 12:00:22;;;;;;;33.08;23.98;;;11.20;99.90;;;;;;5076021;28;20040;-58
2022/11/14 12:02:49;;;;;;;35.55;25.10;;;11.30;99.90;;;;;;5069540;28;20041;-58
2022/11/14 12:05:28;;;;;;;31.52;23.38;;;11.40;99.90;;;;;;5071785;28;20059;-56
2022/11/14 12:08:03;;;;;;;34.72;23.95;;;11.50;99.90;;;;;;5070898;28;20115;-57
2022/11/14 12:10:34;;;;;;;35.50;23.55;;;11.50;99.90;;;;;;5059919;28;20040;-54
2022/11/14 12:13:18;;;;;;;33.30;23.27;;;11.50;99.90;;;;;;5054018;28;20050;-57
2022/11/14 12:15:51;;;;;;;31.05;23.05;;;11.40;99.90;;;;;;5062512;28;20059;-53
2022/11/14 12:18:26;;;;;;;33.33;23.40;;;11.30;99.90;;;;;;5060143;28;20032;-55
2022/11/14 12:21:14;;;;;;;31.80;22.77;;;11.50;99.90;;;;;;5063530;28;20040;-56
2022/11/14 12:23:58;;;;;;;30.40;21.88;;;11.60;99.90;;;;;;5058485;28;20085;-55
2022/11/14 12:26:44;;;;;;;30.15;22.23;;;11.70;99.90;;;;;;5060062;28;20144;-55
2022/11/14 12:30:00;;;;;;;28.65;20.75;;;11.90;99.90;;;;;;5057310;28;20271;-56
2022/11/14 12:32:32;;;;;;;29.80;21.58;;;11.80;99.90;;;;;;5058426;28;20056;-56
2022/11/14 12:35:02;;;;;;;28.55;21.23;;;11.70;99.90;;;;;;5061551;28;20044;-57
2022/11/14 12:37:35;;;;;;;33.08;22.90;;;11.80;99.90;;;;;;5055106;28;20450;-56
2022/11/14 12:40:06;;;;;;;31.08;22.60;;;11.70;99.90;;;;;;5059322;28;20047;-56
2022/11/14 12:42:32;;;;;;;30.92;21.73;;;11.90;99.90;;;;;;5057399;28;20044;-56